createdAt,value
2022-11-14T00:04:01.231Z,41.1
2022-11-14T00:06:27.822Z,35.8
2022-11-14T00:08:54.378Z,39.4
2022-11-14T00:11:21.057Z,32.8
2022-11-14T00:13:47.591Z,36.1
2022-11-14T00:16:12.694Z,39.6
2022-11-14T00:18:39.347Z,41
2022-11-14T00:21:06.021Z,51.8
2022-11-14T00:23:32.649Z,52.9
2022-11-14T00:28:25.813Z,45.5
2022-11-14T00:30:52.484Z,41.9
2022-11-14T00:33:19.067Z,40.2
2022-11-14T00:35:45.686Z,39
2022-11-14T00:38:12.312Z,45.3
2022-11-14T00:40:38.936Z,41.7
2022-11-14T00:43:05.557Z,40
2022-11-14T00:45:32.159Z,39
2022-11-14T00:47:57.473Z,37.5
2022-11-14T00:52:50.585Z,37.9
2022-11-14T00:55:17.201Z,39.8
2022-11-14T00:57:43.804Z,42.4
2022-11-14T01:00:10.469Z,38.5
2022-11-14T01:02:37.034Z,38.7
2022-11-14T01:05:03.659Z,42.3
2022-11-14T01:07:30.365Z,39
2022-11-14T01:09:56.922Z,30.3
2022-11-14T01:12:23.530Z,39.7
2022-11-14T01:17:16.917Z,37.5
2022-11-14T01:19:41.989Z,48.6
2022-11-14T01:22:08.551Z,53.7
2022-11-14T01:24:35.176Z,49.9
2022-11-14T01:27:01.972Z,58.2
2022-11-14T01:29:28.432Z,33.9
2022-11-14T01:31:55.034Z,39.6
2022-11-14T01:34:21.678Z,35.9
2022-11-14T01:36:48.290Z,49.1
2022-11-14T01:41:41.588Z,34.6
2022-11-14T01:44:08.138Z,39.5
2022-11-14T01:46:34.833Z,31.3
2022-11-14T01:49:01.388Z,34.3
2022-11-14T01:51:26.511Z,32.9
2022-11-14T01:53:53.237Z,30.4
2022-11-14T01:56:19.751Z,37.2
2022-11-14T01:58:46.489Z,28.5
2022-11-14T02:01:13.030Z,27.7
2022-11-14T02:06:06.257Z,32.4
2022-11-14T02:08:32.866Z,37.6
2022-11-14T02:10:59.541Z,37.9
2022-11-14T02:13:26.119Z,28.6
2022-11-14T02:15:52.809Z,33.5
2022-11-14T02:18:19.358Z,27.3
2022-11-14T02:20:46.003Z,27.6
2022-11-14T02:23:11.119Z,29.1
2022-11-14T02:25:37.738Z,29.3
2022-11-14T02:30:31.046Z,34.7
2022-11-14T02:32:57.684Z,40
2022-11-14T02:35:24.218Z,36.9
2022-11-14T02:37:50.856Z,29
2022-11-14T02:40:17.478Z,29.1
2022-11-14T02:42:44.123Z,30.1
2022-11-14T02:45:10.748Z,33.5
2022-11-14T02:47:37.338Z,40
2022-11-14T02:50:03.965Z,34.6
2022-11-14T02:52:30.604Z,47
2022-11-14T02:54:55.770Z,40.1
2022-11-14T02:57:20.859Z,45.4
2022-11-14T02:59:45.995Z,48.4
2022-11-14T03:02:12.625Z,46.1
2022-11-14T03:04:39.316Z,45.4
2022-11-14T03:07:05.915Z,48
2022-11-14T03:09:32.483Z,55.5
2022-11-14T03:11:59.118Z,87.5
2022-11-14T03:14:25.726Z,96.8
2022-11-14T03:19:19.008Z,80
2022-11-14T03:21:45.686Z,75.8
2022-11-14T03:24:12.281Z,82.2
2022-11-14T03:26:38.849Z,121.6
2022-11-14T03:29:05.455Z,92.7
2022-11-14T03:31:30.603Z,95.1
2022-11-14T03:33:57.256Z,93
2022-11-14T03:36:23.865Z,142.7
2022-11-14T03:38:50.475Z,143.6
2022-11-14T03:43:43.841Z,152.1
2022-11-14T03:46:08.845Z,132.8
2022-11-14T03:48:33.969Z,122.4
2022-11-14T03:51:00.598Z,97.6
2022-11-14T03:53:27.236Z,93.9
2022-11-14T03:55:53.839Z,86
2022-11-14T03:58:20.464Z,83.5
2022-11-14T04:00:47.134Z,100.1
2022-11-14T04:03:13.711Z,72.8
2022-11-14T04:08:06.967Z,93.2
2022-11-14T04:10:33.601Z,80.2
2022-11-14T04:13:00.230Z,86.5
2022-11-14T04:15:26.941Z,77.6
2022-11-14T04:17:53.454Z,79.5
2022-11-14T04:20:18.596Z,75.4
2022-11-14T04:22:45.257Z,108.7
2022-11-14T04:25:11.869Z,78.1
2022-11-14T04:27:38.473Z,78.4
2022-11-14T04:32:31.805Z,78
2022-11-14T04:34:58.327Z,89.1
2022-11-14T04:37:25.004Z,96.9
2022-11-14T04:39:51.591Z,85.6
2022-11-14T04:42:18.263Z,72.5
2022-11-14T04:44:44.839Z,89.5
2022-11-14T04:47:11.452Z,65.1
2022-11-14T04:49:38.093Z,56.6
2022-11-14T04:52:03.213Z,43.3
2022-11-14T04:56:56.517Z,50.5
2022-11-14T04:59:23.067Z,66.1
2022-11-14T05:01:49.696Z,44.9
2022-11-14T05:04:16.334Z,45.8
2022-11-14T05:06:43.044Z,39.6
2022-11-14T05:09:09.646Z,76.4
2022-11-14T05:11:36.196Z,64.3
2022-11-14T05:14:02.829Z,71.6
2022-11-14T05:16:29.470Z,101.8
2022-11-14T05:21:22.744Z,83.1
2022-11-14T05:23:47.825Z,46.6
2022-11-14T05:26:14.486Z,57
2022-11-14T05:28:41.071Z,49.1
2022-11-14T05:31:07.824Z,74
2022-11-14T05:33:34.340Z,84.8
2022-11-14T05:36:00.940Z,95.6
2022-11-14T05:38:27.566Z,69.5
2022-11-14T05:40:54.212Z,123.4
2022-11-14T05:45:47.448Z,76.7
2022-11-14T05:48:14.065Z,108.8
2022-11-14T05:50:40.694Z,61.9
2022-11-14T05:53:07.321Z,81.8
2022-11-14T05:55:32.447Z,61.8
2022-11-14T05:57:59.125Z,72.6
2022-11-14T06:00:25.684Z,84.3
2022-11-14T06:02:52.310Z,92.7
2022-11-14T06:05:18.936Z,78.8
2022-11-14T06:10:12.256Z,68.6
2022-11-14T06:12:38.823Z,60.9
2022-11-14T06:15:05.438Z,77.4
2022-11-14T06:17:32.064Z,70.9
2022-11-14T06:19:58.685Z,62.8
2022-11-14T06:22:25.325Z,70.2
2022-11-14T06:24:51.978Z,65
2022-11-14T06:27:17.054Z,80.7
2022-11-14T06:29:43.690Z,61.8
2022-11-14T06:34:36.966Z,52.4
2022-11-14T06:37:03.659Z,48.3
2022-11-14T06:39:30.281Z,52.7
2022-11-14T06:41:56.885Z,57.8
2022-11-14T06:44:23.478Z,49.7
2022-11-14T06:46:50.110Z,53.4
2022-11-14T06:49:16.695Z,39.8
2022-11-14T06:51:41.834Z,41
2022-11-14T06:54:08.452Z,47.5
2022-11-14T06:59:01.739Z,43.2
2022-11-14T07:01:28.491Z,40.7
2022-11-14T07:03:55.160Z,40.3
2022-11-14T07:06:21.661Z,34.4
2022-11-14T07:08:48.335Z,29
2022-11-14T07:11:14.825Z,30.8
2022-11-14T07:13:41.443Z,27.8
2022-11-14T07:16:08.139Z,30.1
2022-11-14T07:18:34.686Z,28.9
2022-11-14T07:21:01.292Z,18.4
2022-11-14T07:23:26.431Z,21.3
2022-11-14T07:28:18.208Z,15.7
2022-11-14T07:30:43.316Z,18.9
2022-11-14T07:33:10.015Z,19.3
2022-11-14T07:35:36.621Z,19.9
2022-11-14T07:38:03.212Z,21
2022-11-14T07:40:29.806Z,19.6
2022-11-14T07:42:56.438Z,22.6
2022-11-14T07:45:23.103Z,25.4
2022-11-14T07:47:49.674Z,24.6
2022-11-14T07:50:14.811Z,31.9
2022-11-14T07:52:41.443Z,29.9
2022-11-14T07:55:06.632Z,30.8
2022-11-14T07:57:33.278Z,25.7
2022-11-14T07:59:59.811Z,26.9
2022-11-14T08:02:26.448Z,28
2022-11-14T08:04:53.205Z,27.6
2022-11-14T08:07:19.874Z,28.7
2022-11-14T08:12:13.027Z,28.4
2022-11-14T08:17:06.379Z,28.6
2022-11-14T08:19:32.811Z,28.3
2022-11-14T08:21:58.029Z,27.9
2022-11-14T08:24:23.067Z,22.8
2022-11-14T08:26:49.765Z,16.1
2022-11-14T08:29:16.312Z,17.2
2022-11-14T08:31:43.113Z,15.9
2022-11-14T08:36:36.366Z,21.2
2022-11-14T08:41:29.447Z,20
2022-11-14T08:43:56.052Z,19.4
2022-11-14T08:46:22.710Z,20.2
2022-11-14T08:48:49.454Z,17.9
2022-11-14T08:51:15.932Z,21.9
2022-11-14T08:53:42.551Z,21.4
2022-11-14T08:56:07.671Z,16.5
2022-11-14T09:01:01.095Z,20.9
2022-11-14T09:05:54.160Z,21.5
2022-11-14T09:08:20.802Z,21.5
2022-11-14T09:10:47.407Z,21.7
2022-11-14T09:13:14.032Z,23.9
2022-11-14T09:15:40.680Z,26.6
2022-11-14T09:18:07.296Z,30.7
2022-11-14T09:20:33.912Z,26.5
2022-11-14T09:23:00.608Z,26.6
2022-11-14T09:25:27.357Z,32.5
2022-11-14T09:27:52.369Z,33.8
2022-11-14T09:30:18.927Z,34.9
2022-11-14T09:32:45.528Z,34.1
2022-11-14T09:35:12.174Z,34.5
2022-11-14T09:37:38.852Z,31.7
2022-11-14T09:40:05.505Z,36
2022-11-14T09:42:32.020Z,35.1
2022-11-14T09:44:58.810Z,38.6
2022-11-14T09:47:25.266Z,34.2
2022-11-14T09:49:51.898Z,35.5
2022-11-14T09:52:17.031Z,39.4
2022-11-14T09:54:42.159Z,38.3
2022-11-14T09:57:08.777Z,38.9
2022-11-14T09:59:35.424Z,37.1
2022-11-14T10:02:02.012Z,41.3
2022-11-14T10:04:28.642Z,28.1
2022-11-14T10:06:55.272Z,32.5
2022-11-14T10:09:21.899Z,33.3
2022-11-14T10:11:48.518Z,37.1
2022-11-14T10:14:15.135Z,37.6
2022-11-14T10:16:41.896Z,36.8
2022-11-14T10:19:06.900Z,36.3
2022-11-14T10:21:32.030Z,37.1
2022-11-14T10:23:58.642Z,36.7
2022-11-14T10:26:25.277Z,35.2
2022-11-14T10:28:51.908Z,32.5
2022-11-14T10:31:18.534Z,40.6
2022-11-14T10:33:45.138Z,39.7
2022-11-14T10:36:11.778Z,40.3
2022-11-14T10:38:38.393Z,39.3
2022-11-14T10:41:05.005Z,36.3
2022-11-14T10:43:31.647Z,35.9
2022-11-14T10:45:58.261Z,34.6
2022-11-14T10:48:24.877Z,27.7
2022-11-14T10:50:51.508Z,36
2022-11-14T10:53:16.631Z,33.5
2022-11-14T10:55:43.259Z,29.5
2022-11-14T10:58:09.884Z,29.2
2022-11-14T11:00:36.513Z,32.2
2022-11-14T11:03:03.123Z,39.4
2022-11-14T11:05:29.747Z,41.3
2022-11-14T11:07:56.369Z,33.9
2022-11-14T11:10:22.993Z,37.2
2022-11-14T11:12:49.692Z,35.4
2022-11-14T11:15:16.343Z,38.9
2022-11-14T11:17:42.875Z,32.2
2022-11-14T11:20:09.499Z,34.7
2022-11-14T11:22:36.114Z,30.3
2022-11-14T11:25:01.240Z,30
2022-11-14T11:27:27.880Z,36.9
2022-11-14T11:29:54.495Z,34.2
2022-11-14T11:32:21.110Z,39.8
2022-11-14T11:34:47.796Z,32.9
2022-11-14T11:37:14.367Z,45.1
2022-11-14T11:39:40.979Z,40
2022-11-14T11:42:07.623Z,33.3
2022-11-14T11:44:34.471Z,44.4
2022-11-14T11:47:01.004Z,41.7
2022-11-14T11:49:27.460Z,36.9
2022-11-14T11:51:54.106Z,35.2
2022-11-14T11:54:20.897Z,41.8
2022-11-14T11:56:45.999Z,37.5
2022-11-14T11:59:12.471Z,33.5
2022-11-14T12:01:39.104Z,34.4
2022-11-14T12:04:05.755Z,35.9
2022-11-14T12:06:32.335Z,32.6
2022-11-14T12:08:58.969Z,24.2
2022-11-14T12:11:25.595Z,19.1
2022-11-14T12:13:52.215Z,14.6
2022-11-14T12:16:18.839Z,13.4
2022-11-14T12:18:45.463Z,3.8
2022-11-14T12:21:12.094Z,4.1
2022-11-14T12:23:38.708Z,3.4
2022-11-14T12:26:05.333Z,2.6
2022-11-14T12:28:30.455Z,2.6
2022-11-14T12:30:57.072Z,2.8
2022-11-14T12:33:23.691Z,1.8
2022-11-14T12:35:50.462Z,1.9
2022-11-14T12:40:43.578Z,1.7
2022-11-14T12:43:10.195Z,1.9
2022-11-14T12:45:36.805Z,2
2022-11-14T12:48:03.446Z,2.5
2022-11-14T12:50:30.079Z,2.4
2022-11-14T12:52:56.707Z,2.8
2022-11-14T12:55:23.312Z,1.7
2022-11-14T13:00:16.564Z,3.4
2022-11-14T13:02:41.683Z,1.9
2022-11-14T13:05:08.309Z,1.9
2022-11-14T13:07:34.934Z,1.5
2022-11-14T13:10:01.555Z,2.1
2022-11-14T13:12:28.169Z,1.4
2022-11-14T13:14:54.794Z,4
2022-11-14T13:17:21.427Z,1.5
2022-11-14T13:19:48.040Z,1.7
2022-11-14T13:22:14.677Z,1.2
2022-11-14T13:24:41.325Z,1.9
2022-11-14T13:27:07.920Z,3.7
2022-11-14T13:29:34.544Z,1.2
2022-11-14T13:32:01.223Z,1.4
2022-11-14T13:34:27.794Z,2.1
2022-11-14T13:36:52.913Z,2
2022-11-14T13:39:19.685Z,1.5
2022-11-14T13:41:46.284Z,1.5
2022-11-14T13:44:12.786Z,2.6
2022-11-14T13:46:39.443Z,1.6
2022-11-14T13:49:06.028Z,3.1
2022-11-14T13:53:59.262Z,2.4
2022-11-14T13:58:52.517Z,1.1
2022-11-14T14:01:19.251Z,1.8
2022-11-14T14:03:45.756Z,1.1
2022-11-14T14:06:12.390Z,1.9
2022-11-14T14:08:37.512Z,0.9
2022-11-14T14:11:04.141Z,2.2
2022-11-14T14:13:30.768Z,2
2022-11-14T14:15:57.389Z,1.6
2022-11-14T14:18:24.007Z,1.4
2022-11-14T14:23:17.262Z,2.5
2022-11-14T14:25:42.383Z,1.8
2022-11-14T14:30:35.643Z,2.8
2022-11-14T14:33:00.762Z,1.8
2022-11-14T14:35:27.387Z,1.2
2022-11-14T14:37:54.010Z,2
2022-11-14T14:42:47.247Z,1.9
2022-11-14T14:45:13.880Z,3.2
2022-11-14T14:47:40.501Z,1.3
2022-11-14T14:50:07.124Z,1.4
2022-11-14T14:52:33.744Z,1.4
2022-11-14T14:55:00.369Z,1.7
2022-11-14T14:57:26.997Z,3
2022-11-14T14:59:53.623Z,3.4
2022-11-14T15:02:20.238Z,2.2
2022-11-14T15:07:13.510Z,3.9
2022-11-14T15:09:38.757Z,5.7
2022-11-14T15:12:05.250Z,5.1
2022-11-14T15:14:30.390Z,4.2
2022-11-14T15:16:57.012Z,6.1
2022-11-14T15:19:23.621Z,6.4
2022-11-14T15:21:50.248Z,5.4
2022-11-14T15:26:43.499Z,2.8
2022-11-14T15:29:10.110Z,2.8
2022-11-14T15:31:36.737Z,2.8
2022-11-14T15:36:30.016Z,6.4
2022-11-14T15:38:56.601Z,2.4
2022-11-14T15:41:23.239Z,3.5
2022-11-14T15:43:49.847Z,2.3
2022-11-14T15:46:15.040Z,2.8
2022-11-14T15:51:08.336Z,2
2022-11-14T15:53:34.978Z,3.6
2022-11-14T15:56:01.481Z,2.8
2022-11-14T15:58:28.108Z,3.9
2022-11-14T16:00:54.711Z,2.4
2022-11-14T16:03:21.350Z,3.7
2022-11-14T16:05:47.982Z,3.3
2022-11-14T16:08:14.611Z,2
2022-11-14T16:13:07.830Z,2.6
2022-11-14T16:15:34.473Z,3.7
2022-11-14T16:20:27.716Z,3.7
2022-11-14T16:22:52.837Z,2.6
2022-11-14T16:32:39.323Z,2.2
2022-11-14T16:35:05.958Z,2.6
2022-11-14T16:39:59.200Z,3.2
2022-11-14T16:49:45.699Z,4.1
2022-11-14T16:57:05.560Z,4.5
2022-11-14T16:59:30.689Z,5.2
2022-11-14T17:04:23.936Z,4.7
2022-11-14T17:09:17.185Z,10.3
2022-11-14T17:16:37.055Z,12.3
2022-11-14T17:19:03.680Z,8.9
2022-11-14T17:21:30.300Z,13.5
2022-11-14T17:23:56.924Z,11.9
2022-11-14T17:26:23.537Z,12.5
2022-11-14T17:28:50.165Z,10.7
2022-11-14T17:33:41.919Z,10.4
2022-11-14T17:41:01.793Z,11.3
2022-11-14T17:43:28.412Z,14.3
2022-11-14T17:45:55.048Z,8.8
2022-11-14T17:48:21.651Z,7.1
2022-11-14T17:53:14.933Z,6.3
2022-11-14T17:58:08.151Z,7.1
2022-11-14T18:03:01.397Z,6.8
2022-11-14T18:07:53.252Z,11
2022-11-14T18:10:19.766Z,7.3
2022-11-14T18:12:46.390Z,9.9
2022-11-14T18:15:13.126Z,13.3
2022-11-14T18:17:39.636Z,6.3
2022-11-14T18:27:26.169Z,9.8
2022-11-14T18:32:19.380Z,8.8
2022-11-14T18:46:59.127Z,7.6
2022-11-14T18:56:44.129Z,11.2
2022-11-14T19:01:37.437Z,15.5
2022-11-14T19:08:57.836Z,16.9
2022-11-14T19:16:17.181Z,18.5
2022-11-14T19:26:03.597Z,15.8
2022-11-14T19:30:56.844Z,13.8
2022-11-14T19:35:48.592Z,9.2
2022-11-14T19:38:16.315Z,7.4
2022-11-14T19:45:35.105Z,8
2022-11-14T19:48:01.716Z,10.6
2022-11-14T20:00:14.845Z,8.4
2022-11-14T20:10:01.425Z,11.9
2022-11-14T20:14:53.131Z,13.2
2022-11-14T20:19:46.359Z,8.1
2022-11-14T20:29:32.809Z,8.1
2022-11-14T20:36:52.731Z,12
2022-11-14T20:44:12.581Z,12.9
2022-11-14T20:46:38.205Z,12.9
2022-11-14T20:51:31.499Z,14.8
2022-11-14T20:53:57.640Z,18.1
2022-11-14T20:58:50.796Z,18.9
2022-11-14T21:03:44.136Z,16.3
2022-11-14T21:13:30.540Z,18
2022-11-14T21:15:57.700Z,16.7
2022-11-14T21:28:10.386Z,15.4
2022-11-14T21:35:29.405Z,17.6
2022-11-14T21:42:48.515Z,14.3
2022-11-14T21:52:35.014Z,11.9
2022-11-14T21:57:28.256Z,12.9
2022-11-14T21:59:55.237Z,12.7
2022-11-14T22:02:21.560Z,9.9
2022-11-14T22:04:48.519Z,9.7
2022-11-14T22:07:14.751Z,12.8
2022-11-14T22:12:06.549Z,13.3
2022-11-14T22:26:46.242Z,13.3
2022-11-14T22:38:59.444Z,13.3
2022-11-14T22:41:24.535Z,10.5
2022-11-14T22:46:17.762Z,11.5
2022-11-14T22:48:44.535Z,10
2022-11-14T22:56:04.228Z,12.1
2022-11-14T23:00:57.454Z,15.6
2022-11-14T23:03:24.087Z,12.5
2022-11-14T23:05:50.752Z,9.5
2022-11-14T23:08:17.338Z,9.9
2022-11-14T23:10:44.005Z,12.1
2022-11-14T23:15:35.702Z,12.9
2022-11-14T23:25:22.209Z,8.5
2022-11-14T23:37:34.028Z,7.9
2022-11-14T23:40:00.457Z,7.7
2022-11-14T23:47:18.833Z,7.6
2022-11-14T23:49:43.978Z,7.4
2022-11-14T23:52:10.586Z,7.3
2022-11-14T23:54:37.211Z,8.2
2022-11-14T23:57:03.863Z,9.4
2022-11-14T23:59:30.551Z,8.4
